Time;durP1;ratioP1;P1;durP2;ratioP2;P2;SDS_P1;SDS_P2;PMS_P1;PMS_P2;Temp;Humidity;BMP_temperature;BMP_pressure;BME280_temperature;BME280_humidity;BME280_pressure;Samples;Min_cycle;Max_cycle;Signal;HPM_P1;HPM_P2
2022/05/31 00:00:36;;;;;;;2.60;1.13;;;;;;;9.01;100.00;100665.28;5156149;27;20404;-83
2022/05/31 00:03:10;;;;;;;2.60;1.25;;;;;;;8.85;100.00;100647.50;5139289;27;20043;-83
2022/05/31 00:05:37;;;;;;;3.70;1.30;;;;;;;9.11;100.00;100701.50;5155026;27;20050;-83
2022/05/31 00:08:04;;;;;;;2.33;1.20;;;;;;;8.81;100.00;100685.03;5141190;27;20058;-83
2022/05/31 00:10:31;;;;;;;3.60;1.25;;;;;;;8.62;100.00;100692.56;5157074;27;20059;-83
2022/05/31 00:12:59;;;;;;;4.43;1.20;;;;;;;8.77;100.00;100714.75;5142617;27;20061;-82
2022/05/31 00:15:25;;;;;;;2.00;1.10;;;;;;;8.80;100.00;100713.78;5150369;27;20061;-83
2022/05/31 00:17:52;;;;;;;1.92;1.10;;;;;;;8.80;100.00;100721.63;5152315;27;20047;-83
2022/05/31 00:20:19;;;;;;;3.30;1.60;;;;;;;8.75;100.00;100713.94;5152311;27;20117;-83
2022/05/31 00:22:47;;;;;;;3.72;1.17;;;;;;;8.71;100.00;100722.75;5146033;27;20047;-82
2022/05/31 00:25:15;;;;;;;3.35;1.20;;;;;;;8.73;100.00;100695.72;5148185;27;21575;-83
2022/05/31 00:27:42;;;;;;;3.17;1.08;;;;;;;8.76;100.00;100707.81;5153799;27;20047;-83
2022/05/31 00:30:11;;;;;;;3.30;1.20;;;;;;;8.66;100.00;100712.47;5142886;27;20485;-83
2022/05/31 00:32:41;;;;;;;2.33;1.00;;;;;;;8.72;100.00;100714.88;5148816;27;20086;-83
2022/05/31 00:35:14;;;;;;;1.77;1.00;;;;;;;8.75;100.00;100711.34;5144030;27;20472;-83
2022/05/31 00:37:42;;;;;;;2.58;1.15;;;;;;;8.76;100.00;100689.53;5141067;27;20047;-83
2022/05/31 00:40:10;;;;;;;2.53;1.20;;;;;;;8.82;100.00;100718.09;5142153;27;20043;-83
2022/05/31 00:42:53;;;;;;;2.83;1.20;;;;;;;8.85;100.00;100723.22;5140956;27;20042;-83
2022/05/31 00:45:23;;;;;;;;;;;;;;;8.88;100.00;100725.72;5154567;27;20046;-83
2022/05/31 00:47:51;;;;;;;2.35;1.02;;;;;;;8.64;100.00;100695.13;5135965;27;19950;-83
2022/05/31 00:50:47;;;;;;;2.70;1.10;;;;;;;8.84;100.00;100718.88;5147563;27;20061;-83
2022/05/31 00:53:18;;;;;;;3.00;1.10;;;;;;;8.68;100.00;100702.00;5127623;27;20989;-82
2022/05/31 00:55:51;;;;;;;2.90;1.08;;;;;;;8.62;100.00;100684.72;5133563;27;20044;-83
2022/05/31 00:58:41;;;;;;;2.30;1.10;;;;;;;9.00;100.00;100721.03;5146141;27;20039;-83
2022/05/31 01:01:12;;;;;;;1.63;1.10;;;;;;;8.36;100.00;100662.88;5148942;27;20472;-83
2022/05/31 01:03:40;;;;;;;3.55;1.23;;;;;;;8.30;100.00;100664.78;5135250;27;20055;-83
2022/05/31 01:06:07;;;;;;;2.03;1.00;;;;;;;8.26;100.00;100684.06;5147732;27;20053;-83
2022/05/31 01:08:37;;;;;;;2.75;1.10;;;;;;;8.16;100.00;100684.31;5148724;27;20057;-83
2022/05/31 01:11:05;;;;;;;1.83;1.00;;;;;;;8.29;100.00;100733.53;5147724;27;20051;-83
2022/05/31 01:13:32;;;;;;;3.58;1.20;;;;;;;8.11;100.00;100694.03;5155324;27;20051;-83
2022/05/31 01:16:08;;;;;;;2.30;1.10;;;;;;;8.11;100.00;100674.91;5140617;27;20043;-84
2022/05/31 01:18:35;;;;;;;3.40;1.20;;;;;;;8.39;100.00;100713.25;5133938;27;20054;-84
2022/05/31 01:21:02;;;;;;;2.42;1.27;;;;;;;8.40;100.00;100725.41;5146894;27;20043;-83
2022/05/31 01:23:36;;;;;;;4.10;1.13;;;;;;;8.23;100.00;100707.59;5155322;27;20055;-82
2022/05/31 01:26:15;;;;;;;2.97;1.08;;;;;;;8.44;100.00;100727.03;5153508;27;20047;-82
2022/05/31 01:29:07;;;;;;;2.53;1.10;;;;;;;8.57;100.00;100727.53;5133095;27;20047;-82
2022/05/31 01:31:46;;;;;;;2.03;1.20;;;;;;;8.63;100.00;100729.97;5138782;27;20057;-83
2022/05/31 01:34:24;;;;;;;2.80;1.20;;;;;;;8.42;100.00;100726.22;5152544;27;20038;-82
2022/05/31 01:36:53;;;;;;;2.75;1.10;;;;;;;8.46;100.00;100739.13;5149149;27;20047;-82
2022/05/31 01:39:42;;;;;;;2.92;1.27;;;;;;;8.45;100.00;100734.84;5142876;27;20042;-81
2022/05/31 01:42:18;;;;;;;3.40;1.30;;;;;;;8.33;100.00;100733.38;5152986;27;20047;-82
2022/05/31 01:44:50;;;;;;;2.25;1.20;;;;;;;8.23;100.00;100724.09;5140632;27;20050;-82
2022/05/31 01:47:18;;;;;;;2.78;1.20;;;;;;;8.27;100.00;100730.09;5144942;27;20469;-82
2022/05/31 01:49:48;;;;;;;2.30;1.10;;;;;;;8.29;100.00;100733.53;5134241;27;20058;-82
2022/05/31 01:52:15;;;;;;;3.47;1.23;;;;;;;8.24;100.00;100714.56;5153496;27;20051;-82
2022/05/31 01:54:43;;;;;;;3.13;1.20;;;;;;;8.29;100.00;100726.56;5135441;27;20043;-83
2022/05/31 01:57:12;;;;;;;2.42;1.10;;;;;;;8.26;100.00;100736.22;5143042;27;20042;-82
2022/05/31 01:59:43;;;;;;;2.08;1.15;;;;;;;8.20;100.00;100728.56;5154302;27;20038;-82
2022/05/31 02:02:10;;;;;;;3.15;1.20;;;;;;;8.02;100.00;100712.53;5153808;27;20056;-82
2022/05/31 02:04:37;;;;;;;2.92;1.20;;;;;;;8.00;100.00;100709.09;5142314;27;20047;-82
2022/05/31 02:07:13;;;;;;;2.13;1.20;;;;;;;7.90;100.00;100723.31;5142787;27;20047;-82
2022/05/31 02:09:42;;;;;;;2.60;1.30;;;;;;;7.64;100.00;100723.97;5135362;27;20043;-82
2022/05/31 02:12:14;;;;;;;;;;;;;;;7.74;100.00;100733.28;5133980;27;20092;-82
2022/05/31 02:14:41;;;;;;;2.78;1.20;;;;;;;7.36;100.00;100725.50;5143918;27;19919;-82
2022/05/31 02:17:09;;;;;;;4.55;1.40;;;;;;;7.50;100.00;100719.09;5138373;27;20042;-83
2022/05/31 02:19:36;;;;;;;1.60;1.10;;;;;;;7.54;100.00;100690.34;5141750;27;20051;-83
2022/05/31 02:22:07;;;;;;;1.92;1.10;;;;;;;7.63;100.00;100710.06;5139578;27;20043;-83
2022/05/31 02:24:33;;;;;;;4.85;1.55;;;;;;;7.34;100.00;100653.50;5153558;27;20043;-82
2022/05/31 02:27:01;;;;;;;3.05;1.20;;;;;;;7.65;100.00;100687.47;5140781;27;20049;-82
2022/05/31 02:29:33;;;;;;;4.85;1.35;;;;;;;7.93;100.00;100726.69;5143321;27;20043;-82
2022/05/31 02:32:02;;;;;;;2.80;1.30;;;;;;;7.93;100.00;100721.47;5152131;27;20170;-83
2022/05/31 02:34:32;;;;;;;2.20;1.30;;;;;;;7.75;100.00;100701.09;5152315;27;20043;-82
2022/05/31 02:36:59;;;;;;;2.90;1.60;;;;;;;7.73;100.00;100718.53;5147313;27;20582;-82
2022/05/31 02:39:26;;;;;;;3.17;1.20;;;;;;;7.58;100.00;100689.34;5143320;27;20047;-83
2022/05/31 02:41:53;;;;;;;3.55;1.30;;;;;;;7.75;100.00;100728.00;5140480;27;20130;-83
2022/05/31 02:44:21;;;;;;;2.70;1.23;;;;;;;7.68;100.00;100715.19;5144688;27;20047;-83
2022/05/31 02:46:48;;;;;;;2.53;1.17;;;;;;;7.65;100.00;100736.09;5144288;27;20043;-83
2022/05/31 02:49:15;;;;;;;2.15;1.20;;;;;;;7.11;100.00;100714.81;5144293;27;20142;-83
2022/05/31 02:51:44;;;;;;;3.17;1.40;;;;;;;7.11;100.00;100713.97;5150148;27;20043;-82
2022/05/31 02:54:13;;;;;;;1.52;1.00;;;;;;;7.21;100.00;100723.28;5147603;27;20047;-83
2022/05/31 02:56:40;;;;;;;3.17;1.30;;;;;;;6.98;100.00;100685.63;5137848;27;20046;-83
2022/05/31 02:59:07;;;;;;;4.07;1.50;;;;;;;7.20;100.00;100691.16;5147991;27;20677;-83
2022/05/31 03:01:36;;;;;;;1.88;1.00;;;;;;;7.64;100.00;100722.22;5147871;27;20047;-84
2022/05/31 03:04:05;;;;;;;1.65;1.10;;;;;;;7.77;100.00;100728.84;5150354;27;20046;-83
2022/05/31 03:06:32;;;;;;;2.20;1.23;;;;;;;7.59;100.00;100724.94;5141439;27;20043;-83
2022/05/31 03:08:59;;;;;;;2.58;1.20;;;;;;;7.25;100.00;100685.00;5145278;27;20079;-83
2022/05/31 03:11:30;;;;;;;2.78;1.20;;;;;;;7.28;100.00;100683.19;5153185;27;20058;-83
2022/05/31 03:14:14;;;;;;;3.78;1.30;;;;;;;7.36;100.00;100707.28;5152509;27;20073;-83
2022/05/31 03:16:44;;;;;;;2.45;1.20;;;;;;;7.40;100.00;100724.56;5146261;27;20130;-83
2022/05/31 03:19:16;;;;;;;3.17;1.38;;;;;;;7.05;100.00;100675.94;5138573;27;20047;-83
2022/05/31 03:21:49;;;;;;;2.63;1.38;;;;;;;7.37;100.00;100703.78;5150259;27;20834;-83
2022/05/31 03:24:21;;;;;;;2.55;1.30;;;;;;;7.40;100.00;100697.63;5151688;27;20046;-83
2022/05/31 03:26:50;;;;;;;3.03;1.30;;;;;;;7.47;100.00;100703.53;5137967;27;20045;-83
2022/05/31 03:29:17;;;;;;;2.38;1.20;;;;;;;7.51;100.00;100720.84;5153443;27;20403;-83
2022/05/31 03:31:44;;;;;;;3.38;1.30;;;;;;;7.34;100.00;100698.63;5149873;27;20047;-83
2022/05/31 03:34:11;;;;;;;3.47;1.40;;;;;;;7.47;100.00;100722.66;5137346;27;20396;-83
2022/05/31 03:36:38;;;;;;;2.72;1.40;;;;;;;7.43;100.00;100721.00;5139037;27;20042;-82
2022/05/31 03:39:05;;;;;;;5.72;1.40;;;;;;;6.83;100.00;100717.19;5141991;27;20121;-83
2022/05/31 03:41:34;;;;;;;3.08;1.40;;;;;;;7.02;100.00;100720.25;5136818;27;20047;-82
2022/05/31 03:44:01;;;;;;;4.90;1.60;;;;;;;7.25;100.00;100734.50;5145712;27;20047;-83
2022/05/31 03:46:28;;;;;;;3.83;1.40;;;;;;;6.73;100.00;100646.31;5141074;27;20057;-83
2022/05/31 03:48:55;;;;;;;4.10;1.70;;;;;;;6.90;100.00;100707.53;5136687;27;20047;-82
2022/05/31 03:51:22;;;;;;;3.50;1.55;;;;;;;6.70;100.00;100693.22;5151941;27;20049;-82
2022/05/31 03:53:49;;;;;;;4.28;1.65;;;;;;;6.67;100.00;100705.44;5151009;27;20103;-80
2022/05/31 03:56:16;;;;;;;4.75;1.60;;;;;;;7.03;100.00;100704.59;5137122;27;20554;-82
2022/05/31 03:58:42;;;;;;;3.00;1.42;;;;;;;6.95;100.00;100666.63;5145808;27;20051;-83
2022/05/31 04:01:09;;;;;;;2.67;1.25;;;;;;;7.02;100.00;100662.97;5151824;27;20050;-83
2022/05/31 04:03:36;;;;;;;3.83;1.55;;;;;;;6.75;100.00;100695.72;5145097;27;20937;-82
2022/05/31 04:06:04;;;;;;;3.50;1.30;;;;;;;6.87;100.00;100726.69;5133442;27;20083;-83
2022/05/31 04:08:31;;;;;;;4.78;1.50;;;;;;;6.87;100.00;100668.53;5135674;27;20069;-82
2022/05/31 04:10:58;;;;;;;3.70;1.50;;;;;;;7.35;100.00;100717.75;5138958;27;20046;-82
2022/05/31 04:13:25;;;;;;;3.13;1.50;;;;;;;6.89;100.00;100679.75;5152918;27;20045;-82
2022/05/31 04:16:08;;;;;;;4.25;1.60;;;;;;;7.46;100.00;100712.28;5131810;27;20054;-83
2022/05/31 04:18:37;;;;;;;5.30;1.65;;;;;;;7.85;100.00;100693.88;5139770;27;20123;-83
2022/05/31 04:21:08;;;;;;;3.78;1.40;;;;;;;8.40;100.00;100663.63;5147606;27;20125;-84
2022/05/31 04:26:20;;;;;;;3.67;1.60;;;;;;;8.81;100.00;100705.91;5142443;27;20043;-84
2022/05/31 04:28:47;;;;;;;2.60;1.40;;;;;;;9.28;100.00;100660.91;5144754;27;20053;-84
2022/05/31 04:31:14;;;;;;;2.45;1.33;;;;;;;9.40;100.00;100673.56;5150824;27;20055;-84
2022/05/31 04:33:41;;;;;;;3.78;1.50;;;;;;;9.46;100.00;100689.03;5156818;27;20119;-84
2022/05/31 04:36:12;;;;;;;3.95;1.63;;;;;;;10.07;100.00;100704.38;5146369;27;20396;-84
2022/05/31 04:38:39;;;;;;;3.80;1.52;;;;;;;9.77;100.00;100669.66;5141185;27;20062;-84
2022/05/31 04:41:07;;;;;;;4.82;1.42;;;;;;;9.65;100.00;100728.47;5148909;27;20051;-84
2022/05/31 04:43:34;;;;;;;3.30;1.42;;;;;;;9.22;100.00;100676.78;5145073;27;20498;-84
2022/05/31 04:46:16;;;;;;;3.97;1.65;;;;;;;10.03;100.00;100717.59;5134655;27;20067;-84
2022/05/31 04:48:44;;;;;;;3.97;1.30;;;;;;;9.56;100.00;100715.72;5133711;27;20047;-84
2022/05/31 04:51:12;;;;;;;3.20;1.30;;;;;;;9.23;100.00;100708.09;5136894;27;20485;-84
2022/05/31 04:53:40;;;;;;;4.07;1.50;;;;;;;8.67;100.00;100716.78;5145481;27;20042;-84
2022/05/31 04:56:09;;;;;;;5.03;1.65;;;;;;;8.39;100.00;100726.28;5149225;27;20043;-83
2022/05/31 04:58:37;;;;;;;4.35;1.67;;;;;;;7.93;100.00;100700.59;5144703;27;20055;-84
2022/05/31 05:01:06;;;;;;;4.10;1.48;;;;;;;8.12;100.00;100737.44;5145717;27;20038;-84
2022/05/31 05:03:37;;;;;;;2.10;1.20;;;;;;;7.88;100.00;100736.38;5143846;27;20141;-84
2022/05/31 05:06:06;;;;;;;4.63;1.50;;;;;;;7.82;100.00;100727.84;5149720;27;20057;-83
2022/05/31 05:08:34;;;;;;;4.40;1.50;;;;;;;7.95;100.00;100742.25;5144273;27;20046;-84
2022/05/31 05:11:09;;;;;;;4.93;2.10;;;;;;;8.02;100.00;100741.22;5147532;27;20040;-83
2022/05/31 05:13:37;;;;;;;3.25;1.50;;;;;;;7.48;100.00;100713.09;5161804;27;20039;-83
2022/05/31 05:16:05;;;;;;;4.35;1.48;;;;;;;7.87;100.00;100739.00;5142708;27;20127;-83
2022/05/31 05:18:34;;;;;;;3.85;1.42;;;;;;;7.82;100.00;100736.53;5146705;27;20115;-83
2022/05/31 05:21:03;;;;;;;4.55;1.50;;;;;;;8.29;100.00;100749.19;5142909;27;20396;-83
2022/05/31 05:23:30;;;;;;;8.18;1.83;;;;;;;8.22;100.00;100747.66;5149446;27;20058;-83
2022/05/31 05:25:58;;;;;;;4.63;1.60;;;;;;;8.06;100.00;100713.31;5147110;27;20058;-83
2022/05/31 05:31:27;;;;;;;4.85;1.55;;;;;;;7.93;100.00;100733.63;5146626;27;20038;-83
2022/05/31 05:33:55;;;;;;;4.55;1.50;;;;;;;8.29;100.00;100720.50;5147255;27;20472;-84
2022/05/31 05:36:22;;;;;;;5.75;1.73;;;;;;;8.98;100.00;100735.88;5142873;27;20135;-83
2022/05/31 05:38:50;;;;;;;7.78;2.67;;;;;;;8.08;100.00;100686.28;5144738;27;20047;-83
2022/05/31 05:41:19;;;;;;;4.82;1.80;;;;;;;8.71;100.00;100736.69;5148301;27;20035;-83
2022/05/31 05:43:46;;;;;;;10.93;2.50;;;;;;;8.45;100.00;100700.91;5142718;27;20046;-83
2022/05/31 05:46:18;;;;;;;4.95;1.70;;;;;;;8.93;100.00;100725.59;5140794;27;20119;-83
2022/05/31 05:48:46;;;;;;;7.38;2.47;;;;;;;8.81;100.00;100699.84;5144318;27;20050;-83
2022/05/31 05:51:18;;;;;;;4.95;1.65;;;;;;;9.10;100.00;100715.47;5147267;27;20043;-82
2022/05/31 05:53:45;;;;;;;3.72;1.35;;;;;;;9.44;100.00;100718.75;5145294;27;20053;-80
2022/05/31 05:56:13;;;;;;;4.75;1.50;;;;;;;9.26;100.00;100713.22;5141761;27;20053;-83
2022/05/31 05:58:41;;;;;;;5.47;2.00;;;;;;;9.17;100.00;100713.53;5144144;27;20051;-84
2022/05/31 06:01:31;;;;;;;5.57;1.98;;;;;;;9.50;100.00;100739.44;5145742;27;20047;-84
2022/05/31 06:04:21;;;;;;;3.30;1.50;;;;;;;9.38;100.00;100711.94;5141271;27;20042;-82
2022/05/31 06:07:02;;;;;;;4.88;1.80;;;;;;;9.23;100.00;100721.16;5139847;27;20042;-82
2022/05/31 06:09:33;;;;;;;5.97;1.90;;;;;;;9.11;100.00;100711.09;5144527;27;20047;-83
2022/05/31 06:12:12;;;;;;;5.30;1.95;;;;;;;9.47;100.00;100727.34;5143682;27;20107;-82
2022/05/31 06:14:46;;;;;;;6.38;1.90;;;;;;;9.58;100.00;100736.56;5142713;27;20042;-82
2022/05/31 06:17:27;;;;;;;6.72;1.98;;;;;;;9.91;100.00;100731.09;5146237;27;20396;-83
2022/05/31 06:19:54;;;;;;;6.35;2.00;;;;;;;9.81;100.00;100689.59;5142528;27;20047;-83
2022/05/31 06:22:20;;;;;;;7.22;2.20;;;;;;;10.20;100.00;100710.00;5143216;27;20047;-82
2022/05/31 06:24:47;;;;;;;5.13;1.77;;;;;;;10.34;100.00;100721.72;5143119;27;20431;-82
2022/05/31 06:27:14;;;;;;;6.35;2.10;;;;;;;10.34;100.00;100726.97;5144593;27;20055;-82
2022/05/31 06:29:42;;;;;;;5.10;1.70;;;;;;;10.54;100.00;100721.84;5147133;27;20049;-83
2022/05/31 06:32:09;;;;;;;6.78;1.90;;;;;;;10.52;100.00;100689.66;5139569;27;20039;-82
2022/05/31 06:34:37;;;;;;;5.32;1.73;;;;;;;10.69;100.00;100688.97;5145330;27;20051;-83
2022/05/31 06:37:07;;;;;;;5.75;2.08;;;;;;;11.07;100.00;100723.31;5142390;27;20156;-82
2022/05/31 06:39:39;;;;;;;5.85;2.00;;;;;;;10.88;100.00;100728.41;5140320;27;20045;-82
2022/05/31 06:42:07;;;;;;;6.60;2.13;;;;;;;10.41;100.00;100733.69;5148114;27;20054;-82
2022/05/31 06:44:35;;;;;;;4.55;1.63;;;;;;;10.33;100.00;100733.97;5141439;27;20759;-82
2022/05/31 06:47:05;;;;;;;4.32;1.55;;;;;;;10.37;100.00;100740.78;5141792;27;20051;-82
2022/05/31 06:49:34;;;;;;;4.68;1.70;;;;;;;10.28;100.00;100743.72;5141476;27;20765;-82
2022/05/31 06:57:38;;;;;;;3.50;1.50;;;;;;;10.57;100.00;100754.91;5143039;27;20096;-82
2022/05/31 07:00:07;;;;;;;5.65;1.70;;;;;;;10.61;100.00;100752.13;5142236;27;20080;-82
2022/05/31 07:02:43;;;;;;;2.55;1.23;;;;;;;10.14;100.00;100752.06;5142195;27;20061;-82
2022/05/31 07:05:25;;;;;;;5.00;1.90;;;;;;;10.62;100.00;100742.50;5132153;27;20112;-82
2022/05/31 07:07:53;;;;;;;5.20;1.75;;;;;;;10.84;100.00;100758.28;5138442;27;20058;-81
2022/05/31 07:10:20;;;;;;;6.43;1.90;;;;;;;10.46;100.00;100750.06;5144370;27;20047;-82
2022/05/31 07:12:48;;;;;;;5.38;1.70;;;;;;;10.69;100.00;100743.13;5140453;27;20046;-82
2022/05/31 07:15:15;;;;;;;6.82;2.55;;;;;;;10.45;100.00;100753.63;5143597;27;20086;-82
2022/05/31 07:17:44;;;;;;;8.45;2.65;;;;;;;10.39;100.00;100759.94;5145949;27;20055;-82
2022/05/31 07:20:11;;;;;;;6.25;2.53;;;;;;;10.48;100.00;100750.88;5145724;27;20046;-82
2022/05/31 07:22:38;;;;;;;6.82;2.53;;;;;;;10.56;100.00;100761.06;5145025;27;20055;-83
2022/05/31 07:25:07;;;;;;;5.82;2.25;;;;;;;10.92;100.00;100755.34;5145648;27;20048;-82
2022/05/31 07:27:35;;;;;;;5.75;1.70;;;;;;;11.30;100.00;100745.13;5146938;27;20397;-83
2022/05/31 07:30:03;;;;;;;10.68;4.50;;;;;;;11.69;100.00;100757.53;5135774;27;20035;-82
2022/05/31 07:32:30;;;;;;;7.47;3.05;;;;;;;11.87;100.00;100722.63;5131766;27;20055;-83
2022/05/31 07:35:16;;;;;;;7.05;2.33;;;;;;;12.23;100.00;100770.97;5144941;27;20503;-83
2022/05/31 07:37:43;;;;;;;8.38;2.42;;;;;;;12.09;100.00;100735.72;5138737;27;20046;-82
2022/05/31 07:40:10;;;;;;;6.80;2.33;;;;;;;12.52;100.00;100715.38;5144339;27;20043;-83
2022/05/31 07:42:37;;;;;;;6.28;1.90;;;;;;;12.44;100.00;100762.16;5138832;27;20054;-83
2022/05/31 07:45:05;;;;;;;5.78;1.65;;;;;;;12.68;100.00;100738.34;5139723;27;20039;-82
2022/05/31 07:47:31;;;;;;;7.60;1.98;;;;;;;12.92;100.00;100746.81;5145215;27;20061;-83
2022/05/31 07:49:58;;;;;;;4.97;1.70;;;;;;;12.69;100.00;100740.00;5141452;27;20045;-83
2022/05/31 07:52:25;;;;;;;4.45;1.80;;;;;;;12.98;100.00;100740.41;5151664;27;20129;-84
2022/05/31 07:54:53;;;;;;;6.85;2.45;;;;;;;12.53;100.00;100745.13;5153020;27;20498;-83
2022/05/31 08:00:06;;;;;;;5.85;2.10;;;;;;;12.85;100.00;100745.41;5152407;27;20047;-83
2022/05/31 08:02:33;;;;;;;4.30;1.67;;;;;;;13.10;100.00;100750.34;5149997;27;20047;-83
2022/05/31 08:05:00;;;;;;;6.68;1.98;;;;;;;13.05;100.00;100733.94;5138783;27;20053;-83
2022/05/31 08:07:27;;;;;;;6.85;2.40;;;;;;;13.34;100.00;100739.63;5151522;27;20057;-83
2022/05/31 08:09:54;;;;;;;8.05;2.03;;;;;;;13.66;100.00;100740.63;5146996;27;20046;-83
2022/05/31 08:12:21;;;;;;;4.55;1.55;;;;;;;13.74;100.00;100722.69;5147559;27;20034;-83
2022/05/31 08:14:47;;;;;;;4.70;1.80;;;;;;;13.86;100.00;100713.31;5151216;27;20051;-82
2022/05/31 08:17:14;;;;;;;11.55;3.45;;;;;;;13.17;100.00;100737.75;5143175;27;20577;-82
2022/05/31 08:19:44;;;;;;;6.47;2.03;;;;;;;13.78;100.00;100739.19;5149802;27;20134;-83
2022/05/31 08:22:11;;;;;;;6.47;1.92;;;;;;;13.53;100.00;100700.97;5150353;27;20134;-83
2022/05/31 08:24:38;;;;;;;6.45;2.15;;;;;;;13.76;100.00;100743.69;5154712;27;20519;-82
2022/05/31 08:27:11;;;;;;;7.13;2.17;;;;;;;13.71;100.00;100736.00;5148882;27;20480;-83
2022/05/31 08:29:38;;;;;;;7.13;1.80;;;;;;;13.80;100.00;100743.41;5153209;27;20054;-83
2022/05/31 08:32:05;;;;;;;6.05;1.65;;;;;;;13.56;100.00;100713.94;5150142;27;20039;-82
2022/05/31 08:34:33;;;;;;;7.32;1.92;;;;;;;13.68;100.00;100746.66;5149437;27;20404;-82
2022/05/31 08:36:59;;;;;;;6.93;1.70;;;;;;;13.65;100.00;100737.16;5141796;27;20057;-82
2022/05/31 08:39:26;;;;;;;7.10;1.80;;;;;;;14.03;100.00;100742.25;5140983;27;20401;-82
2022/05/31 08:42:03;;;;;;;8.82;2.30;;;;;;;14.50;100.00;100743.31;5148254;27;20039;-83
2022/05/31 08:44:36;;;;;;;10.10;2.13;;;;;;;14.30;100.00;100741.72;5139579;27;20061;-81
2022/05/31 08:47:26;;;;;;;7.13;1.90;;;;;;;14.66;100.00;100743.34;5148322;27;20047;-82
2022/05/31 08:53:02;;;;;;;8.32;1.80;;;;;;;14.95;100.00;100740.91;5149201;27;20499;-83
2022/05/31 08:58:26;;;;;;;7.30;2.10;;;;;;;14.64;100.00;100715.38;5146031;27;20062;-83
2022/05/31 09:00:57;;;;;;;7.78;1.92;;;;;;;14.75;100.00;100737.56;5151109;27;20039;-83
2022/05/31 09:03:36;;;;;;;10.07;1.77;;;;;;;15.00;100.00;100725.66;5145099;27;20125;-83
2022/05/31 09:06:10;;;;;;;5.47;1.88;;;;;;;15.54;100.00;100736.59;5153494;27;20078;-83
2022/05/31 09:08:46;;;;;;;6.57;1.50;;;;;;;15.52;100.00;100729.75;5149029;27;20500;-83
2022/05/31 09:11:26;;;;;;;4.90;1.40;;;;;;;15.54;100.00;100736.59;5152424;27;20038;-83
2022/05/31 09:14:17;;;;;;;7.00;1.60;;;;;;;15.54;100.00;100722.56;5147636;27;20384;-83
2022/05/31 09:16:57;;;;;;;5.10;1.45;;;;;;;15.33;100.00;100725.53;5144323;27;20686;-84
2022/05/31 09:19:35;;;;;;;9.68;1.73;;;;;;;15.08;100.00;100717.31;5144032;27;20578;-83
2022/05/31 09:22:02;;;;;;;10.18;1.70;;;;;;;15.33;100.00;100736.09;5145205;27;20053;-87
2022/05/31 09:24:29;;;;;;;4.72;1.55;;;;;;;15.33;100.00;100724.66;5145241;27;20408;-86
2022/05/31 09:27:07;;;;;;;3.80;1.23;;;;;;;15.57;100.00;100738.25;5150728;27;20395;-86
2022/05/31 09:29:40;;;;;;;6.40;1.60;;;;;;;15.68;100.00;100737.59;5145191;27;20068;-85
2022/05/31 09:32:19;;;;;;;5.45;1.45;;;;;;;15.68;100.00;100730.53;5150000;27;20062;-85
2022/05/31 09:35:08;;;;;;;4.82;1.50;;;;;;;15.50;100.00;100728.97;5142691;27;20049;-85
2022/05/31 09:37:56;;;;;;;5.32;1.70;;;;;;;15.48;100.00;100725.59;5149085;27;20049;-86
2022/05/31 09:40:38;;;;;;;8.75;1.83;;;;;;;15.51;100.00;100728.91;5144265;27;20039;-85
2022/05/31 09:43:26;;;;;;;4.55;1.33;;;;;;;15.44;100.00;100724.91;5148380;27;20049;-85
2022/05/31 09:46:28;;;;;;;5.63;1.50;;;;;;;15.29;100.00;100731.91;5147683;27;20043;-84
2022/05/31 09:48:56;;;;;;;6.80;1.50;;;;;;;15.36;100.00;100729.78;5070610;28;20410;-85
2022/05/31 09:51:38;;;;;;;3.90;1.30;;;;;;;15.37;100.00;100713.03;5125782;27;20045;-85
2022/05/31 09:57:06;;;;;;;6.97;1.63;;;;;;;15.44;100.00;100724.91;5146283;27;20047;-85
2022/05/31 09:59:38;;;;;;;5.77;1.67;;;;;;;15.31;100.00;100721.28;5145130;27;20049;-85
2022/05/31 10:02:19;;;;;;;5.70;1.40;;;;;;;15.64;100.00;100739.56;5146584;27;20045;-85
2022/05/31 10:05:04;;;;;;;5.72;1.50;;;;;;;15.37;100.00;100739.41;5146989;27;20043;-85
2022/05/31 10:07:37;;;;;;;5.78;1.65;;;;;;;14.90;100.00;100701.59;5145863;27;20061;-85
2022/05/31 10:10:10;;;;;;;;;;;;;;;15.11;100.00;100738.25;5147399;27;20126;-85
2022/05/31 10:12:49;;;;;;;8.48;1.67;;;;;;;14.91;100.00;100724.41;5142543;27;19919;-85
2022/05/31 10:15:34;;;;;;;3.92;1.48;;;;;;;15.02;100.00;100733.50;5149494;27;20476;-85
2022/05/31 10:18:04;;;;;;;6.68;1.42;;;;;;;15.03;100.00;100745.72;5147153;27;20138;-85
2022/05/31 10:20:32;;;;;;;5.28;1.58;;;;;;;15.16;100.00;100742.31;5142592;27;20131;-85
2022/05/31 10:23:11;;;;;;;3.92;1.40;;;;;;;15.18;100.00;100739.59;5140919;27;20408;-85
2022/05/31 10:25:41;;;;;;;6.32;1.48;;;;;;;15.36;100.00;100735.06;5132369;27;20058;-85
2022/05/31 10:28:23;;;;;;;4.88;1.48;;;;;;;15.30;100.00;100725.72;5147966;27;20050;-85
2022/05/31 10:31:03;;;;;;;6.10;1.98;;;;;;;15.38;100.00;100741.94;5138026;27;20047;-85
2022/05/31 10:33:32;;;;;;;4.45;1.10;;;;;;;15.03;100.00;100696.47;5147354;27;20127;-82
2022/05/31 10:36:17;;;;;;;4.90;1.30;;;;;;;15.32;100.00;100752.00;5146159;27;20049;-83
2022/05/31 10:38:48;;;;;;;6.55;1.63;;;;;;;14.72;100.00;100753.56;5145962;27;20057;-84
2022/05/31 10:41:32;;;;;;;8.23;1.63;;;;;;;14.67;100.00;100744.19;5148585;27;20096;-82
2022/05/31 10:44:33;;;;;;;6.47;2.10;;;;;;;14.35;100.00;100760.75;5139101;27;20051;-82
2022/05/31 10:47:15;;;;;;;7.85;2.00;;;;;;;13.94;100.00;100757.66;5143776;27;20055;-82
2022/05/31 10:49:45;;;;;;;4.55;1.75;;;;;;;14.12;100.00;100756.72;5136930;27;20051;-82
2022/05/31 10:52:26;;;;;;;5.88;1.80;;;;;;;13.98;100.00;100764.47;5142145;27;20042;-81
2022/05/31 10:55:15;;;;;;;6.65;1.70;;;;;;;13.98;100.00;100767.09;5147678;27;20138;-81
2022/05/31 10:58:14;;;;;;;6.72;1.52;;;;;;;13.47;100.00;100770.50;5143552;27;20572;-81
2022/05/31 11:00:53;;;;;;;4.65;1.40;;;;;;;13.02;100.00;100771.75;5134469;27;20047;-81
2022/05/31 11:03:20;;;;;;;5.70;1.30;;;;;;;12.89;100.00;100775.88;5147595;27;20412;-81
2022/05/31 11:05:52;;;;;;;6.13;1.60;;;;;;;12.98;100.00;100777.22;5145886;27;20490;-81
2022/05/31 11:11:34;;;;;;;6.75;1.40;;;;;;;12.86;100.00;100769.00;5145382;27;20045;-79
2022/05/31 11:14:19;;;;;;;5.85;1.58;;;;;;;12.90;100.00;100775.78;5149684;27;20044;-80
2022/05/31 11:16:55;;;;;;;1.40;0.90;;;;;;;12.86;100.00;100765.53;5138623;27;20043;-80
2022/05/31 11:19:27;;;;;;;4.00;1.10;;;;;;;12.83;100.00;100777.00;5148684;27;20130;-80
2022/05/31 11:22:28;;;;;;;2.10;1.07;;;;;;;13.09;100.00;100767.91;5143984;27;20391;-80
2022/05/31 11:24:55;;;;;;;3.08;1.35;;;;;;;12.97;100.00;100771.13;5138953;27;20047;-79
2022/05/31 11:27:55;;;;;;;4.18;1.30;;;;;;;13.09;100.00;100764.44;5147368;27;20047;-81
2022/05/31 11:30:47;;;;;;;3.25;1.20;;;;;;;13.16;100.00;100771.09;5133718;27;20049;-80
2022/05/31 11:33:32;;;;;;;6.13;1.73;;;;;;;13.15;100.00;100768.53;5131256;27;20051;-80
2022/05/31 11:36:02;;;;;;;5.68;1.92;;;;;;;13.37;100.00;100765.75;5143808;27;20051;-82
2022/05/31 11:38:52;;;;;;;8.75;1.80;;;;;;;13.42;100.00;100751.47;5140720;27;20050;-82
2022/05/31 11:41:21;;;;;;;8.13;2.10;;;;;;;13.39;100.00;100764.75;5141146;27;20045;-83
2022/05/31 11:43:57;;;;;;;10.65;2.25;;;;;;;13.69;100.00;100766.81;5141313;27;20056;-84
2022/05/31 11:46:43;;;;;;;14.43;2.35;;;;;;;13.56;100.00;100708.66;5140029;27;20051;-83
2022/05/31 11:49:54;;;;;;;9.85;2.90;;;;;;;14.16;100.00;100724.00;5150585;27;20049;-84
2022/05/31 11:52:49;;;;;;;8.07;1.73;;;;;;;14.18;100.00;100763.44;5137627;27;20057;-84
2022/05/31 11:55:30;;;;;;;7.70;2.05;;;;;;;14.23;100.00;100749.09;5150408;27;20061;-84
2022/05/31 11:58:15;;;;;;;4.65;1.63;;;;;;;14.46;100.00;100760.19;5139852;27;20057;-83
2022/05/31 12:01:01;;;;;;;5.60;1.73;;;;;;;14.31;100.00;100724.16;5148722;27;20050;-84
2022/05/31 12:03:53;;;;;;;8.82;2.10;;;;;;;13.93;100.00;100762.06;5133545;27;20460;-84
2022/05/31 12:06:38;;;;;;;7.03;1.95;;;;;;;14.52;100.00;100756.38;5143605;27;20043;-84
2022/05/31 12:09:17;;;;;;;7.20;1.98;;;;;;;14.85;100.00;100763.41;5146851;27;20043;-84
2022/05/31 12:12:07;;;;;;;5.75;1.52;;;;;;;14.79;100.00;100757.56;5146208;27;20043;-84